sensor_id;sensor_type;location;lat;lon;timestamp;P1;durP1;ratioP1;P2;durP2;ratioP2
3293;SDS011;1659;51.470;6.770;2022-07-29T00:00:37;3.43;;;2.07;;
3293;SDS011;1659;51.470;6.770;2022-07-29T00:03:03;2.10;;;2.00;;
3293;SDS011;1659;51.470;6.770;2022-07-29T00:05:30;2.83;;;2.00;;
3293;SDS011;1659;51.470;6.770;2022-07-29T00:07:57;3.40;;;2.27;;
3293;SDS011;1659;51.470;6.770;2022-07-29T00:10:23;3.83;;;2.30;;
3293;SDS011;1659;51.470;6.770;2022-07-29T00:12:50;4.57;;;2.70;;
3293;SDS011;1659;51.470;6.770;2022-07-29T00:15:18;7.10;;;2.40;;
3293;SDS011;1659;51.470;6.770;2022-07-29T00:17:44;5.87;;;2.57;;
3293;SDS011;1659;51.470;6.770;2022-07-29T00:20:11;2.23;;;2.10;;
3293;SDS011;1659;51.470;6.770;2022-07-29T00:22:38;11.40;;;2.37;;
3293;SDS011;1659;51.470;6.770;2022-07-29T00:25:04;3.23;;;2.30;;
3293;SDS011;1659;51.470;6.770;2022-07-29T00:27:32;7.43;;;1.90;;
3293;SDS011;1659;51.470;6.770;2022-07-29T00:29:59;3.27;;;2.70;;
3293;SDS011;1659;51.470;6.770;2022-07-29T00:32:27;2.50;;;2.30;;
3293;SDS011;1659;51.470;6.770;2022-07-29T00:34:53;3.33;;;2.60;;
3293;SDS011;1659;51.470;6.770;2022-07-29T00:37:37;3.23;;;1.93;;
3293;SDS011;1659;51.470;6.770;2022-07-29T00:40:05;5.80;;;2.40;;
3293;SDS011;1659;51.470;6.770;2022-07-29T00:42:40;2.97;;;2.43;;
3293;SDS011;1659;51.470;6.770;2022-07-29T00:45:08;2.43;;;2.23;;
3293;SDS011;1659;51.470;6.770;2022-07-29T00:47:36;5.27;;;2.40;;
3293;SDS011;1659;51.470;6.770;2022-07-29T00:50:03;3.37;;;2.17;;
3293;SDS011;1659;51.470;6.770;2022-07-29T00:52:32;7.83;;;2.03;;
3293;SDS011;1659;51.470;6.770;2022-07-29T00:54:59;5.20;;;2.67;;
3293;SDS011;1659;51.470;6.770;2022-07-29T00:57:26;5.30;;;2.20;;
3293;SDS011;1659;51.470;6.770;2022-07-29T00:59:52;4.93;;;2.33;;
3293;SDS011;1659;51.470;6.770;2022-07-29T01:02:19;5.87;;;2.43;;
3293;SDS011;1659;51.470;6.770;2022-07-29T01:04:47;3.73;;;2.40;;
3293;SDS011;1659;51.470;6.770;2022-07-29T01:07:14;6.80;;;2.43;;
3293;SDS011;1659;51.470;6.770;2022-07-29T01:09:41;5.37;;;2.50;;
3293;SDS011;1659;51.470;6.770;2022-07-29T01:12:09;4.20;;;2.27;;
3293;SDS011;1659;51.470;6.770;2022-07-29T01:14:37;5.27;;;2.57;;
3293;SDS011;1659;51.470;6.770;2022-07-29T01:17:06;3.33;;;2.60;;
3293;SDS011;1659;51.470;6.770;2022-07-29T01:19:45;9.73;;;2.10;;
3293;SDS011;1659;51.470;6.770;2022-07-29T01:22:23;2.43;;;2.20;;
3293;SDS011;1659;51.470;6.770;2022-07-29T01:25:10;2.40;;;2.20;;
3293;SDS011;1659;51.470;6.770;2022-07-29T01:27:51;2.60;;;2.40;;
3293;SDS011;1659;51.470;6.770;2022-07-29T01:30:35;2.50;;;2.27;;
3293;SDS011;1659;51.470;6.770;2022-07-29T01:33:06;3.33;;;2.20;;
3293;SDS011;1659;51.470;6.770;2022-07-29T01:35:36;4.30;;;2.53;;
3293;SDS011;1659;51.470;6.770;2022-07-29T01:38:07;2.10;;;1.90;;
3293;SDS011;1659;51.470;6.770;2022-07-29T01:40:38;2.70;;;2.50;;
3293;SDS011;1659;51.470;6.770;2022-07-29T01:43:10;4.80;;;2.47;;
3293;SDS011;1659;51.470;6.770;2022-07-29T01:45:41;2.90;;;2.10;;
3293;SDS011;1659;51.470;6.770;2022-07-29T01:48:11;4.07;;;2.73;;
3293;SDS011;1659;51.470;6.770;2022-07-29T01:50:44;3.77;;;2.30;;
3293;SDS011;1659;51.470;6.770;2022-07-29T01:53:14;4.40;;;2.67;;
3293;SDS011;1659;51.470;6.770;2022-07-29T01:55:47;3.90;;;2.17;;
3293;SDS011;1659;51.470;6.770;2022-07-29T01:58:16;6.40;;;2.60;;
3293;SDS011;1659;51.470;6.770;2022-07-29T02:00:46;3.57;;;2.60;;
3293;SDS011;1659;51.470;6.770;2022-07-29T02:03:14;2.90;;;2.47;;
3293;SDS011;1659;51.470;6.770;2022-07-29T02:05:43;2.70;;;2.50;;
3293;SDS011;1659;51.470;6.770;2022-07-29T02:08:13;4.53;;;2.80;;
3293;SDS011;1659;51.470;6.770;2022-07-29T02:10:41;6.40;;;2.77;;
3293;SDS011;1659;51.470;6.770;2022-07-29T02:13:10;2.93;;;2.37;;
3293;SDS011;1659;51.470;6.770;2022-07-29T02:15:38;2.67;;;2.47;;
3293;SDS011;1659;51.470;6.770;2022-07-29T02:18:11;2.80;;;2.57;;
3293;SDS011;1659;51.470;6.770;2022-07-29T02:20:42;3.50;;;3.20;;
3293;SDS011;1659;51.470;6.770;2022-07-29T02:23:13;2.73;;;2.50;;
3293;SDS011;1659;51.470;6.770;2022-07-29T02:25:43;3.90;;;2.60;;
3293;SDS011;1659;51.470;6.770;2022-07-29T02:28:10;6.93;;;2.70;;
3293;SDS011;1659;51.470;6.770;2022-07-29T02:30:40;6.63;;;2.43;;
3293;SDS011;1659;51.470;6.770;2022-07-29T02:33:12;3.17;;;2.33;;
3293;SDS011;1659;51.470;6.770;2022-07-29T02:35:40;3.80;;;2.20;;
3293;SDS011;1659;51.470;6.770;2022-07-29T02:38:09;2.60;;;2.33;;
3293;SDS011;1659;51.470;6.770;2022-07-29T02:40:55;8.37;;;3.03;;
3293;SDS011;1659;51.470;6.770;2022-07-29T02:43:25;8.17;;;2.53;;
3293;SDS011;1659;51.470;6.770;2022-07-29T02:45:52;8.60;;;3.00;;
3293;SDS011;1659;51.470;6.770;2022-07-29T02:48:22;3.07;;;2.87;;
3293;SDS011;1659;51.470;6.770;2022-07-29T02:51:01;6.10;;;3.07;;
3293;SDS011;1659;51.470;6.770;2022-07-29T02:53:32;6.30;;;3.10;;
3293;SDS011;1659;51.470;6.770;2022-07-29T02:56:01;4.00;;;2.80;;
3293;SDS011;1659;51.470;6.770;2022-07-29T02:58:33;5.83;;;3.50;;
3293;SDS011;1659;51.470;6.770;2022-07-29T03:01:04;3.13;;;2.80;;
3293;SDS011;1659;51.470;6.770;2022-07-29T03:03:38;5.20;;;2.87;;
3293;SDS011;1659;51.470;6.770;2022-07-29T03:06:08;7.90;;;2.90;;
3293;SDS011;1659;51.470;6.770;2022-07-29T03:08:36;5.27;;;2.33;;
3293;SDS011;1659;51.470;6.770;2022-07-29T03:11:03;5.57;;;2.73;;
3293;SDS011;1659;51.470;6.770;2022-07-29T03:13:30;3.60;;;2.70;;
3293;SDS011;1659;51.470;6.770;2022-07-29T03:15:57;4.50;;;2.90;;
3293;SDS011;1659;51.470;6.770;2022-07-29T03:18:24;11.10;;;3.30;;
3293;SDS011;1659;51.470;6.770;2022-07-29T03:20:53;5.37;;;3.00;;
3293;SDS011;1659;51.470;6.770;2022-07-29T03:23:20;3.60;;;2.73;;
3293;SDS011;1659;51.470;6.770;2022-07-29T03:25:49;4.77;;;2.40;;
3293;SDS011;1659;51.470;6.770;2022-07-29T03:28:15;4.40;;;2.53;;
3293;SDS011;1659;51.470;6.770;2022-07-29T03:30:42;3.90;;;2.30;;
3293;SDS011;1659;51.470;6.770;2022-07-29T03:33:09;2.60;;;2.40;;
3293;SDS011;1659;51.470;6.770;2022-07-29T03:35:35;2.67;;;2.47;;
3293;SDS011;1659;51.470;6.770;2022-07-29T03:38:04;2.63;;;2.43;;
3293;SDS011;1659;51.470;6.770;2022-07-29T03:40:31;3.20;;;2.90;;
3293;SDS011;1659;51.470;6.770;2022-07-29T03:43:01;6.13;;;2.97;;
3293;SDS011;1659;51.470;6.770;2022-07-29T03:45:29;6.87;;;2.77;;
3293;SDS011;1659;51.470;6.770;2022-07-29T03:47:59;5.93;;;3.30;;
3293;SDS011;1659;51.470;6.770;2022-07-29T03:50:28;6.77;;;3.77;;
3293;SDS011;1659;51.470;6.770;2022-07-29T03:52:57;11.30;;;2.87;;
3293;SDS011;1659;51.470;6.770;2022-07-29T03:55:25;6.03;;;3.60;;
3293;SDS011;1659;51.470;6.770;2022-07-29T03:57:54;8.37;;;3.30;;
3293;SDS011;1659;51.470;6.770;2022-07-29T04:00:22;8.33;;;3.93;;
3293;SDS011;1659;51.470;6.770;2022-07-29T04:02:50;9.23;;;3.90;;
3293;SDS011;1659;51.470;6.770;2022-07-29T04:05:17;6.60;;;3.63;;
3293;SDS011;1659;51.470;6.770;2022-07-29T04:07:44;5.00;;;4.20;;
3293;SDS011;1659;51.470;6.770;2022-07-29T04:10:11;10.63;;;3.97;;
3293;SDS011;1659;51.470;6.770;2022-07-29T04:12:39;6.83;;;4.20;;
3293;SDS011;1659;51.470;6.770;2022-07-29T04:15:06;9.70;;;5.10;;
3293;SDS011;1659;51.470;6.770;2022-07-29T04:17:33;7.20;;;4.93;;
3293;SDS011;1659;51.470;6.770;2022-07-29T04:20:00;11.57;;;5.27;;
3293;SDS011;1659;51.470;6.770;2022-07-29T04:22:26;9.30;;;4.87;;
3293;SDS011;1659;51.470;6.770;2022-07-29T04:24:53;11.10;;;5.43;;
3293;SDS011;1659;51.470;6.770;2022-07-29T04:27:20;7.93;;;3.97;;
3293;SDS011;1659;51.470;6.770;2022-07-29T04:29:48;8.00;;;4.20;;
3293;SDS011;1659;51.470;6.770;2022-07-29T04:32:14;7.00;;;4.17;;
3293;SDS011;1659;51.470;6.770;2022-07-29T04:34:41;3.73;;;3.37;;
3293;SDS011;1659;51.470;6.770;2022-07-29T04:37:07;5.43;;;3.50;;
3293;SDS011;1659;51.470;6.770;2022-07-29T04:39:34;6.30;;;4.10;;
3293;SDS011;1659;51.470;6.770;2022-07-29T04:42:00;7.10;;;3.40;;
3293;SDS011;1659;51.470;6.770;2022-07-29T04:44:27;4.87;;;3.60;;
3293;SDS011;1659;51.470;6.770;2022-07-29T04:46:55;7.70;;;4.00;;
3293;SDS011;1659;51.470;6.770;2022-07-29T04:49:22;3.50;;;3.00;;
3293;SDS011;1659;51.470;6.770;2022-07-29T04:51:49;6.23;;;3.57;;
3293;SDS011;1659;51.470;6.770;2022-07-29T04:54:16;5.57;;;3.10;;
3293;SDS011;1659;51.470;6.770;2022-07-29T04:56:42;4.97;;;3.87;;
3293;SDS011;1659;51.470;6.770;2022-07-29T04:59:09;5.73;;;3.53;;
3293;SDS011;1659;51.470;6.770;2022-07-29T05:01:35;3.73;;;3.47;;
3293;SDS011;1659;51.470;6.770;2022-07-29T05:04:03;4.23;;;3.40;;
3293;SDS011;1659;51.470;6.770;2022-07-29T05:06:30;6.63;;;3.63;;
3293;SDS011;1659;51.470;6.770;2022-07-29T05:08:56;5.30;;;4.00;;
3293;SDS011;1659;51.470;6.770;2022-07-29T05:11:23;8.97;;;4.00;;
3293;SDS011;1659;51.470;6.770;2022-07-29T05:13:49;10.77;;;4.17;;
3293;SDS011;1659;51.470;6.770;2022-07-29T05:16:16;4.60;;;3.50;;
3293;SDS011;1659;51.470;6.770;2022-07-29T05:18:43;7.70;;;4.47;;
3293;SDS011;1659;51.470;6.770;2022-07-29T05:21:10;5.40;;;4.20;;
3293;SDS011;1659;51.470;6.770;2022-07-29T05:23:37;6.07;;;3.93;;
3293;SDS011;1659;51.470;6.770;2022-07-29T05:26:04;6.10;;;4.30;;
3293;SDS011;1659;51.470;6.770;2022-07-29T05:28:32;4.50;;;3.90;;
3293;SDS011;1659;51.470;6.770;2022-07-29T05:30:59;11.80;;;4.33;;
3293;SDS011;1659;51.470;6.770;2022-07-29T05:33:26;5.47;;;4.50;;
3293;SDS011;1659;51.470;6.770;2022-07-29T05:35:52;7.50;;;4.20;;
3293;SDS011;1659;51.470;6.770;2022-07-29T05:38:20;7.17;;;4.27;;
3293;SDS011;1659;51.470;6.770;2022-07-29T05:40:47;5.10;;;4.43;;
3293;SDS011;1659;51.470;6.770;2022-07-29T05:43:13;4.90;;;4.50;;
3293;SDS011;1659;51.470;6.770;2022-07-29T05:45:40;5.80;;;5.10;;
3293;SDS011;1659;51.470;6.770;2022-07-29T05:48:06;7.60;;;4.13;;
3293;SDS011;1659;51.470;6.770;2022-07-29T05:50:33;5.37;;;3.93;;
3293;SDS011;1659;51.470;6.770;2022-07-29T05:52:59;6.60;;;4.50;;
3293;SDS011;1659;51.470;6.770;2022-07-29T05:55:27;7.33;;;4.10;;
3293;SDS011;1659;51.470;6.770;2022-07-29T05:57:54;8.77;;;4.90;;
3293;SDS011;1659;51.470;6.770;2022-07-29T06:00:21;6.50;;;4.00;;
3293;SDS011;1659;51.470;6.770;2022-07-29T06:02:47;10.23;;;4.10;;
3293;SDS011;1659;51.470;6.770;2022-07-29T06:05:14;8.03;;;3.80;;
3293;SDS011;1659;51.470;6.770;2022-07-29T06:07:41;5.37;;;4.27;;
3293;SDS011;1659;51.470;6.770;2022-07-29T06:10:08;6.03;;;4.20;;
3293;SDS011;1659;51.470;6.770;2022-07-29T06:12:36;7.00;;;5.27;;
3293;SDS011;1659;51.470;6.770;2022-07-29T06:15:04;16.47;;;4.57;;
3293;SDS011;1659;51.470;6.770;2022-07-29T06:17:31;6.10;;;3.97;;
3293;SDS011;1659;51.470;6.770;2022-07-29T06:19:57;28.63;;;13.20;;
3293;SDS011;1659;51.470;6.770;2022-07-29T06:22:24;25.00;;;13.30;;
3293;SDS011;1659;51.470;6.770;2022-07-29T06:24:51;12.13;;;5.90;;
3293;SDS011;1659;51.470;6.770;2022-07-29T06:27:17;7.13;;;4.53;;
3293;SDS011;1659;51.470;6.770;2022-07-29T06:29:45;10.13;;;4.70;;
3293;SDS011;1659;51.470;6.770;2022-07-29T06:32:12;6.57;;;4.30;;
3293;SDS011;1659;51.470;6.770;2022-07-29T06:34:38;8.13;;;4.70;;
3293;SDS011;1659;51.470;6.770;2022-07-29T06:37:05;5.30;;;4.40;;
3293;SDS011;1659;51.470;6.770;2022-07-29T06:39:33;5.00;;;4.00;;
3293;SDS011;1659;51.470;6.770;2022-07-29T06:42:00;6.00;;;3.97;;
3293;SDS011;1659;51.470;6.770;2022-07-29T06:44:27;9.60;;;4.10;;
3293;SDS011;1659;51.470;6.770;2022-07-29T06:46:55;7.90;;;3.47;;
3293;SDS011;1659;51.470;6.770;2022-07-29T06:49:21;5.93;;;4.30;;
3293;SDS011;1659;51.470;6.770;2022-07-29T06:51:49;8.37;;;3.67;;
3293;SDS011;1659;51.470;6.770;2022-07-29T06:54:16;5.43;;;4.40;;
3293;SDS011;1659;51.470;6.770;2022-07-29T06:56:43;10.73;;;4.83;;
3293;SDS011;1659;51.470;6.770;2022-07-29T06:59:10;9.97;;;4.73;;
3293;SDS011;1659;51.470;6.770;2022-07-29T07:01:38;6.23;;;4.23;;
3293;SDS011;1659;51.470;6.770;2022-07-29T07:04:07;14.93;;;5.70;;
3293;SDS011;1659;51.470;6.770;2022-07-29T07:06:34;6.93;;;4.90;;
3293;SDS011;1659;51.470;6.770;2022-07-29T07:09:01;11.57;;;5.77;;
3293;SDS011;1659;51.470;6.770;2022-07-29T07:11:28;5.10;;;4.60;;
3293;SDS011;1659;51.470;6.770;2022-07-29T07:13:54;11.70;;;5.93;;
3293;SDS011;1659;51.470;6.770;2022-07-29T07:16:21;7.70;;;4.93;;
3293;SDS011;1659;51.470;6.770;2022-07-29T07:18:48;12.83;;;5.67;;
3293;SDS011;1659;51.470;6.770;2022-07-29T07:21:15;13.00;;;5.20;;
3293;SDS011;1659;51.470;6.770;2022-07-29T07:23:42;12.73;;;6.30;;
3293;SDS011;1659;51.470;6.770;2022-07-29T07:26:09;12.23;;;5.53;;
3293;SDS011;1659;51.470;6.770;2022-07-29T07:28:35;14.07;;;6.20;;
3293;SDS011;1659;51.470;6.770;2022-07-29T07:31:02;13.30;;;5.80;;
3293;SDS011;1659;51.470;6.770;2022-07-29T07:33:29;12.90;;;6.40;;
3293;SDS011;1659;51.470;6.770;2022-07-29T07:35:55;13.53;;;5.97;;
3293;SDS011;1659;51.470;6.770;2022-07-29T07:38:23;16.33;;;7.37;;
3293;SDS011;1659;51.470;6.770;2022-07-29T07:40:50;10.20;;;5.57;;
3293;SDS011;1659;51.470;6.770;2022-07-29T07:43:16;9.90;;;6.83;;
3293;SDS011;1659;51.470;6.770;2022-07-29T07:45:43;8.87;;;6.60;;
3293;SDS011;1659;51.470;6.770;2022-07-29T07:48:09;10.23;;;6.97;;
3293;SDS011;1659;51.470;6.770;2022-07-29T07:50:36;11.90;;;6.80;;
3293;SDS011;1659;51.470;6.770;2022-07-29T07:53:03;13.63;;;6.90;;
3293;SDS011;1659;51.470;6.770;2022-07-29T07:55:30;9.53;;;5.70;;
3293;SDS011;1659;51.470;6.770;2022-07-29T07:57:57;16.93;;;6.10;;
3293;SDS011;1659;51.470;6.770;2022-07-29T08:00:24;11.27;;;6.30;;
3293;SDS011;1659;51.470;6.770;2022-07-29T08:02:50;13.63;;;7.20;;
3293;SDS011;1659;51.470;6.770;2022-07-29T08:05:17;10.90;;;6.20;;
3293;SDS011;1659;51.470;6.770;2022-07-29T08:07:44;12.37;;;6.80;;
3293;SDS011;1659;51.470;6.770;2022-07-29T08:10:12;14.00;;;6.83;;
3293;SDS011;1659;51.470;6.770;2022-07-29T08:12:40;9.93;;;5.80;;
3293;SDS011;1659;51.470;6.770;2022-07-29T08:15:07;15.30;;;5.60;;
3293;SDS011;1659;51.470;6.770;2022-07-29T08:17:34;13.90;;;6.30;;
3293;SDS011;1659;51.470;6.770;2022-07-29T08:20:01;12.63;;;7.07;;
3293;SDS011;1659;51.470;6.770;2022-07-29T08:22:28;14.20;;;6.30;;
3293;SDS011;1659;51.470;6.770;2022-07-29T08:24:55;10.07;;;6.10;;
3293;SDS011;1659;51.470;6.770;2022-07-29T08:27:22;14.60;;;8.03;;
3293;SDS011;1659;51.470;6.770;2022-07-29T08:29:52;10.93;;;7.70;;
3293;SDS011;1659;51.470;6.770;2022-07-29T08:32:20;13.67;;;6.67;;
3293;SDS011;1659;51.470;6.770;2022-07-29T08:34:47;12.73;;;7.37;;
3293;SDS011;1659;51.470;6.770;2022-07-29T08:37:13;12.90;;;7.07;;
3293;SDS011;1659;51.470;6.770;2022-07-29T08:39:40;13.50;;;7.40;;
3293;SDS011;1659;51.470;6.770;2022-07-29T08:42:07;13.60;;;6.77;;
3293;SDS011;1659;51.470;6.770;2022-07-29T08:44:34;12.30;;;6.80;;
3293;SDS011;1659;51.470;6.770;2022-07-29T08:47:03;7.70;;;6.23;;
3293;SDS011;1659;51.470;6.770;2022-07-29T08:49:30;7.40;;;6.70;;
3293;SDS011;1659;51.470;6.770;2022-07-29T08:51:59;13.27;;;7.77;;
3293;SDS011;1659;51.470;6.770;2022-07-29T08:54:26;11.57;;;7.70;;
3293;SDS011;1659;51.470;6.770;2022-07-29T08:56:53;11.07;;;7.80;;
3293;SDS011;1659;51.470;6.770;2022-07-29T08:59:22;14.90;;;8.30;;
3293;SDS011;1659;51.470;6.770;2022-07-29T09:01:52;15.03;;;8.87;;
3293;SDS011;1659;51.470;6.770;2022-07-29T09:04:21;11.00;;;8.00;;
3293;SDS011;1659;51.470;6.770;2022-07-29T09:06:53;10.57;;;8.77;;
3293;SDS011;1659;51.470;6.770;2022-07-29T09:09:23;11.87;;;7.47;;
3293;SDS011;1659;51.470;6.770;2022-07-29T09:11:49;16.80;;;7.10;;
3293;SDS011;1659;51.470;6.770;2022-07-29T09:14:18;14.07;;;6.00;;
3293;SDS011;1659;51.470;6.770;2022-07-29T09:16:45;11.23;;;6.70;;
3293;SDS011;1659;51.470;6.770;2022-07-29T09:19:25;13.70;;;6.70;;
3293;SDS011;1659;51.470;6.770;2022-07-29T09:21:53;10.30;;;7.13;;
3293;SDS011;1659;51.470;6.770;2022-07-29T09:24:24;9.00;;;7.10;;
3293;SDS011;1659;51.470;6.770;2022-07-29T09:26:52;13.20;;;7.13;;
3293;SDS011;1659;51.470;6.770;2022-07-29T09:29:19;12.33;;;7.90;;
3293;SDS011;1659;51.470;6.770;2022-07-29T09:31:49;11.73;;;7.13;;
3293;SDS011;1659;51.470;6.770;2022-07-29T09:34:16;8.60;;;6.63;;
3293;SDS011;1659;51.470;6.770;2022-07-29T09:36:49;11.80;;;7.00;;
3293;SDS011;1659;51.470;6.770;2022-07-29T09:39:26;11.00;;;7.53;;
3293;SDS011;1659;51.470;6.770;2022-07-29T09:41:54;13.60;;;7.77;;
3293;SDS011;1659;51.470;6.770;2022-07-29T09:44:22;9.87;;;7.13;;
3293;SDS011;1659;51.470;6.770;2022-07-29T09:46:56;10.03;;;6.40;;
3293;SDS011;1659;51.470;6.770;2022-07-29T09:49:24;14.63;;;7.17;;
3293;SDS011;1659;51.470;6.770;2022-07-29T09:52:02;10.23;;;6.97;;
3293;SDS011;1659;51.470;6.770;2022-07-29T09:54:31;10.93;;;7.23;;
3293;SDS011;1659;51.470;6.770;2022-07-29T09:57:01;10.60;;;6.70;;
3293;SDS011;1659;51.470;6.770;2022-07-29T09:59:29;12.00;;;6.77;;
3293;SDS011;1659;51.470;6.770;2022-07-29T10:01:56;16.17;;;8.60;;
3293;SDS011;1659;51.470;6.770;2022-07-29T10:04:22;13.90;;;8.30;;
3293;SDS011;1659;51.470;6.770;2022-07-29T10:06:56;13.70;;;8.40;;
3293;SDS011;1659;51.470;6.770;2022-07-29T10:09:24;9.93;;;6.90;;
3293;SDS011;1659;51.470;6.770;2022-07-29T10:12:04;8.83;;;6.37;;
3293;SDS011;1659;51.470;6.770;2022-07-29T10:14:33;11.23;;;7.73;;
3293;SDS011;1659;51.470;6.770;2022-07-29T10:17:00;14.47;;;6.73;;
3293;SDS011;1659;51.470;6.770;2022-07-29T10:19:28;9.47;;;6.20;;
3293;SDS011;1659;51.470;6.770;2022-07-29T10:21:56;12.23;;;6.60;;
3293;SDS011;1659;51.470;6.770;2022-07-29T10:24:26;10.53;;;6.37;;
3293;SDS011;1659;51.470;6.770;2022-07-29T10:26:53;8.57;;;6.27;;
3293;SDS011;1659;51.470;6.770;2022-07-29T10:29:21;10.03;;;6.30;;
3293;SDS011;1659;51.470;6.770;2022-07-29T10:31:49;6.23;;;5.63;;
3293;SDS011;1659;51.470;6.770;2022-07-29T10:34:34;7.40;;;6.50;;
3293;SDS011;1659;51.470;6.770;2022-07-29T10:37:15;11.70;;;6.20;;
3293;SDS011;1659;51.470;6.770;2022-07-29T10:39:52;11.63;;;5.97;;
3293;SDS011;1659;51.470;6.770;2022-07-29T10:42:25;8.43;;;5.80;;
3293;SDS011;1659;51.470;6.770;2022-07-29T10:44:55;8.60;;;4.90;;
3293;SDS011;1659;51.470;6.770;2022-07-29T10:47:22;12.57;;;5.50;;
3293;SDS011;1659;51.470;6.770;2022-07-29T10:49:56;8.50;;;4.77;;
3293;SDS011;1659;51.470;6.770;2022-07-29T10:52:24;6.23;;;4.97;;
3293;SDS011;1659;51.470;6.770;2022-07-29T10:54:54;6.43;;;4.40;;
3293;SDS011;1659;51.470;6.770;2022-07-29T10:57:24;8.60;;;4.07;;
3293;SDS011;1659;51.470;6.770;2022-07-29T11:02:52;4.80;;;4.33;;
3293;SDS011;1659;51.470;6.770;2022-07-29T11:05:21;5.50;;;4.70;;
3293;SDS011;1659;51.470;6.770;2022-07-29T11:10:50;6.73;;;4.03;;
3293;SDS011;1659;51.470;6.770;2022-07-29T11:16:15;8.07;;;3.23;;
3293;SDS011;1659;51.470;6.770;2022-07-29T11:21:43;7.70;;;5.33;;
3293;SDS011;1659;51.470;6.770;2022-07-29T11:24:12;12.33;;;5.30;;
3293;SDS011;1659;51.470;6.770;2022-07-29T11:26:41;10.30;;;6.50;;
3293;SDS011;1659;51.470;6.770;2022-07-29T11:29:14;11.93;;;5.90;;
3293;SDS011;1659;51.470;6.770;2022-07-29T11:31:45;9.07;;;7.00;;
3293;SDS011;1659;51.470;6.770;2022-07-29T11:34:23;9.80;;;6.47;;
3293;SDS011;1659;51.470;6.770;2022-07-29T11:39:41;9.17;;;4.90;;
3293;SDS011;1659;51.470;6.770;2022-07-29T11:45:06;11.07;;;5.80;;
3293;SDS011;1659;51.470;6.770;2022-07-29T11:47:35;13.77;;;7.17;;
3293;SDS011;1659;51.470;6.770;2022-07-29T11:50:03;12.00;;;8.17;;
3293;SDS011;1659;51.470;6.770;2022-07-29T11:52:32;14.13;;;6.90;;
3293;SDS011;1659;51.470;6.770;2022-07-29T11:55:02;15.97;;;6.90;;
3293;SDS011;1659;51.470;6.770;2022-07-29T11:57:31;12.63;;;6.77;;
3293;SDS011;1659;51.470;6.770;2022-07-29T12:00:02;10.53;;;6.50;;
3293;SDS011;1659;51.470;6.770;2022-07-29T12:02:40;7.23;;;5.00;;
3293;SDS011;1659;51.470;6.770;2022-07-29T12:05:07;7.73;;;4.70;;
3293;SDS011;1659;51.470;6.770;2022-07-29T12:07:36;10.57;;;5.70;;
3293;SDS011;1659;51.470;6.770;2022-07-29T12:10:04;12.23;;;6.00;;
3293;SDS011;1659;51.470;6.770;2022-07-29T12:12:31;10.17;;;5.50;;
3293;SDS011;1659;51.470;6.770;2022-07-29T12:15:11;7.20;;;5.50;;
3293;SDS011;1659;51.470;6.770;2022-07-29T12:17:42;10.27;;;4.60;;
3293;SDS011;1659;51.470;6.770;2022-07-29T12:20:09;7.60;;;5.10;;
3293;SDS011;1659;51.470;6.770;2022-07-29T12:22:39;5.20;;;4.10;;
3293;SDS011;1659;51.470;6.770;2022-07-29T12:25:09;8.80;;;5.50;;
3293;SDS011;1659;51.470;6.770;2022-07-29T12:27:39;9.80;;;4.80;;
3293;SDS011;1659;51.470;6.770;2022-07-29T12:30:08;7.13;;;4.87;;
3293;SDS011;1659;51.470;6.770;2022-07-29T12:32:39;8.20;;;5.47;;
3293;SDS011;1659;51.470;6.770;2022-07-29T12:35:08;15.07;;;5.97;;
3293;SDS011;1659;51.470;6.770;2022-07-29T12:37:37;13.63;;;5.90;;
3293;SDS011;1659;51.470;6.770;2022-07-29T12:40:06;7.40;;;5.67;;
3293;SDS011;1659;51.470;6.770;2022-07-29T12:42:35;9.67;;;5.37;;
3293;SDS011;1659;51.470;6.770;2022-07-29T12:45:02;13.47;;;5.20;;
3293;SDS011;1659;51.470;6.770;2022-07-29T12:47:32;5.87;;;5.30;;
3293;SDS011;1659;51.470;6.770;2022-07-29T12:50:08;6.60;;;5.40;;
3293;SDS011;1659;51.470;6.770;2022-07-29T12:52:36;7.30;;;4.50;;
3293;SDS011;1659;51.470;6.770;2022-07-29T12:55:03;8.93;;;4.50;;
3293;SDS011;1659;51.470;6.770;2022-07-29T12:57:31;4.73;;;4.23;;
3293;SDS011;1659;51.470;6.770;2022-07-29T13:00:02;12.57;;;5.00;;
3293;SDS011;1659;51.470;6.770;2022-07-29T13:02:34;7.13;;;5.60;;
3293;SDS011;1659;51.470;6.770;2022-07-29T13:05:00;14.00;;;4.70;;
3293;SDS011;1659;51.470;6.770;2022-07-29T13:07:29;10.40;;;6.20;;
3293;SDS011;1659;51.470;6.770;2022-07-29T13:10:09;10.63;;;5.70;;
3293;SDS011;1659;51.470;6.770;2022-07-29T13:12:37;6.67;;;5.43;;
3293;SDS011;1659;51.470;6.770;2022-07-29T13:15:11;11.57;;;5.40;;
3293;SDS011;1659;51.470;6.770;2022-07-29T13:17:41;7.03;;;4.60;;
3293;SDS011;1659;51.470;6.770;2022-07-29T13:20:09;8.50;;;5.17;;
3293;SDS011;1659;51.470;6.770;2022-07-29T13:22:39;5.00;;;4.50;;
3293;SDS011;1659;51.470;6.770;2022-07-29T13:25:07;8.47;;;4.43;;
3293;SDS011;1659;51.470;6.770;2022-07-29T13:27:35;4.77;;;4.30;;
3293;SDS011;1659;51.470;6.770;2022-07-29T13:30:03;5.13;;;4.63;;
3293;SDS011;1659;51.470;6.770;2022-07-29T13:32:32;5.23;;;4.73;;
3293;SDS011;1659;51.470;6.770;2022-07-29T13:35:03;10.47;;;5.03;;
3293;SDS011;1659;51.470;6.770;2022-07-29T13:37:31;8.60;;;4.77;;
3293;SDS011;1659;51.470;6.770;2022-07-29T13:39:59;10.73;;;5.10;;
3293;SDS011;1659;51.470;6.770;2022-07-29T13:42:27;5.00;;;4.50;;
3293;SDS011;1659;51.470;6.770;2022-07-29T13:44:54;4.33;;;3.93;;
3293;SDS011;1659;51.470;6.770;2022-07-29T13:47:21;7.73;;;4.60;;
3293;SDS011;1659;51.470;6.770;2022-07-29T13:49:48;5.10;;;4.60;;
3293;SDS011;1659;51.470;6.770;2022-07-29T13:52:16;5.20;;;3.77;;
3293;SDS011;1659;51.470;6.770;2022-07-29T13:54:43;4.77;;;4.27;;
3293;SDS011;1659;51.470;6.770;2022-07-29T13:57:10;7.37;;;5.00;;
3293;SDS011;1659;51.470;6.770;2022-07-29T13:59:37;6.80;;;3.23;;
3293;SDS011;1659;51.470;6.770;2022-07-29T14:02:04;5.77;;;4.23;;
3293;SDS011;1659;51.470;6.770;2022-07-29T14:04:31;8.27;;;4.20;;
3293;SDS011;1659;51.470;6.770;2022-07-29T14:06:58;4.70;;;3.83;;
3293;SDS011;1659;51.470;6.770;2022-07-29T14:09:26;6.53;;;4.40;;
3293;SDS011;1659;51.470;6.770;2022-07-29T14:11:52;7.50;;;3.97;;
3293;SDS011;1659;51.470;6.770;2022-07-29T14:14:19;5.43;;;3.70;;
3293;SDS011;1659;51.470;6.770;2022-07-29T14:16:46;3.90;;;3.47;;
3293;SDS011;1659;51.470;6.770;2022-07-29T14:19:13;5.10;;;3.50;;
3293;SDS011;1659;51.470;6.770;2022-07-29T14:21:39;4.00;;;3.60;;
3293;SDS011;1659;51.470;6.770;2022-07-29T14:24:06;4.57;;;3.67;;
3293;SDS011;1659;51.470;6.770;2022-07-29T14:26:34;7.67;;;3.50;;
3293;SDS011;1659;51.470;6.770;2022-07-29T14:29:00;10.17;;;3.73;;
3293;SDS011;1659;51.470;6.770;2022-07-29T14:31:27;8.03;;;3.23;;
3293;SDS011;1659;51.470;6.770;2022-07-29T14:33:54;6.50;;;3.57;;
3293;SDS011;1659;51.470;6.770;2022-07-29T14:36:20;4.97;;;2.90;;
3293;SDS011;1659;51.470;6.770;2022-07-29T14:38:47;4.70;;;3.53;;
3293;SDS011;1659;51.470;6.770;2022-07-29T14:41:13;7.10;;;3.73;;
3293;SDS011;1659;51.470;6.770;2022-07-29T14:43:41;4.23;;;2.93;;
3293;SDS011;1659;51.470;6.770;2022-07-29T14:46:08;4.00;;;3.63;;
3293;SDS011;1659;51.470;6.770;2022-07-29T14:48:35;3.53;;;2.90;;
3293;SDS011;1659;51.470;6.770;2022-07-29T14:51:01;13.70;;;3.90;;
3293;SDS011;1659;51.470;6.770;2022-07-29T14:53:28;5.07;;;3.40;;
3293;SDS011;1659;51.470;6.770;2022-07-29T14:55:55;3.53;;;3.33;;
3293;SDS011;1659;51.470;6.770;2022-07-29T14:58:21;5.80;;;3.33;;
3293;SDS011;1659;51.470;6.770;2022-07-29T15:00:49;5.40;;;3.80;;
3293;SDS011;1659;51.470;6.770;2022-07-29T15:03:16;6.60;;;3.27;;
3293;SDS011;1659;51.470;6.770;2022-07-29T15:05:42;6.90;;;3.90;;
3293;SDS011;1659;51.470;6.770;2022-07-29T15:08:09;6.40;;;4.13;;
3293;SDS011;1659;51.470;6.770;2022-07-29T15:10:36;7.90;;;3.00;;
3293;SDS011;1659;51.470;6.770;2022-07-29T15:13:02;5.60;;;3.20;;
3293;SDS011;1659;51.470;6.770;2022-07-29T15:15:29;4.20;;;2.97;;
3293;SDS011;1659;51.470;6.770;2022-07-29T15:17:57;3.43;;;3.13;;
3293;SDS011;1659;51.470;6.770;2022-07-29T15:20:24;6.47;;;3.90;;
3293;SDS011;1659;51.470;6.770;2022-07-29T15:22:52;3.47;;;3.17;;
3293;SDS011;1659;51.470;6.770;2022-07-29T15:25:20;6.73;;;3.73;;
3293;SDS011;1659;51.470;6.770;2022-07-29T15:27:47;5.43;;;3.33;;
3293;SDS011;1659;51.470;6.770;2022-07-29T15:30:13;3.53;;;3.00;;
3293;SDS011;1659;51.470;6.770;2022-07-29T15:32:41;3.37;;;3.07;;
3293;SDS011;1659;51.470;6.770;2022-07-29T15:35:09;4.13;;;2.90;;